Time;durP1;ratioP1;P1;durP2;ratioP2;P2;SDS_P1;SDS_P2;PMS_P1;PMS_P2;Temp;Humidity;BMP_temperature;BMP_pressure;BME280_temperature;BME280_humidity;BME280_pressure;Samples;Min_cycle;Max_cycle;Signal;HPM_P1;HPM_P2
2023/06/10 00:00:14;;;;;;;15.93;7.27;;;13.90;1.00;;;;;;5014905;28;20648;-55
2023/06/10 00:02:41;;;;;;;16.57;7.13;;;13.90;1.00;;;;;;5018821;28;20186;-55
2023/06/10 00:05:08;;;;;;;12.53;6.23;;;13.80;1.00;;;;;;5019065;28;20559;-56
2023/06/10 00:07:37;;;;;;;15.53;6.77;;;13.80;1.00;;;;;;5018788;28;20494;-56
2023/06/10 00:10:06;;;;;;;17.43;7.10;;;13.90;99.90;;;;;;5018394;28;20435;-56
2023/06/10 00:12:36;;;;;;;14.93;7.07;;;13.90;99.90;;;;;;5018266;28;20779;-56
2023/06/10 00:15:04;;;;;;;15.57;7.10;;;13.80;27.70;;;;;;5018326;28;20822;-55
2023/06/10 00:17:30;;;;;;;13.73;6.17;;;13.80;55.70;;;;;;5018441;28;20473;-55
2023/06/10 00:19:55;;;;;;;12.30;6.77;;;13.70;61.30;;;;;;5018154;28;20419;-55
2023/06/10 00:22:22;;;;;;;14.63;6.33;;;13.70;99.90;;;;;;5018144;28;20639;-55
2023/06/10 00:24:47;;;;;;;14.27;7.60;;;13.70;1.00;;;;;;5018306;28;20204;-55
2023/06/10 00:27:13;;;;;;;12.63;6.20;;;13.60;1.00;;;;;;5018351;28;20553;-56
2023/06/10 00:29:39;;;;;;;11.57;5.80;;;13.60;99.90;;;;;;5018259;28;20210;-54
2023/06/10 00:32:05;;;;;;;10.40;5.60;;;13.60;1.00;;;;;;5018583;28;20180;-52
2023/06/10 00:34:32;;;;;;;8.77;6.03;;;13.60;1.00;;;;;;5018181;28;20192;-55
2023/06/10 00:36:57;;;;;;;9.90;5.50;;;13.60;1.00;;;;;;5018505;28;20426;-54
2023/06/10 00:39:23;;;;;;;12.77;5.30;;;13.50;99.90;;;;;;5017721;28;20454;-55
2023/06/10 00:41:49;;;;;;;15.80;5.60;;;13.40;1.00;;;;;;5018286;28;20208;-55
2023/06/10 00:44:15;;;;;;;9.63;5.17;;;13.40;1.00;;;;;;5018476;28;20191;-54
2023/06/10 00:46:41;;;;;;;8.80;5.83;;;13.30;99.90;;;;;;5017617;28;20530;-53
2023/06/10 00:49:07;;;;;;;13.73;5.10;;;13.30;49.80;;;;;;5018245;28;20526;-54
2023/06/10 00:51:34;;;;;;;12.17;5.40;;;13.30;1.00;;;;;;5018533;28;20541;-53
2023/06/10 00:54:00;;;;;;;12.33;5.43;;;13.20;99.90;;;;;;5017920;28;20530;-54
2023/06/10 00:56:26;;;;;;;13.33;5.50;;;13.20;99.90;;;;;;5017998;28;20505;-55
2023/06/10 00:58:52;;;;;;;9.40;5.23;;;13.20;1.00;;;;;;5017825;28;20208;-55
2023/06/10 01:01:19;;;;;;;13.37;5.30;;;13.20;1.00;;;;;;5018352;28;20423;-55
2023/06/10 01:03:45;;;;;;;11.47;4.87;;;13.20;99.90;;;;;;5017743;28;20190;-55
2023/06/10 01:06:29;;;;;;;9.50;4.50;;;13.20;99.90;;;;;;5018357;28;20769;-54
2023/06/10 01:09:00;;;;;;;10.63;4.40;;;13.20;99.90;;;;;;5017935;28;20172;-55
2023/06/10 01:11:36;;;;;;;8.97;4.73;;;13.20;99.90;;;;;;5015770;28;20408;-54
2023/06/10 01:14:05;;;;;;;11.47;5.27;;;13.10;12.40;;;;;;5014855;28;20907;-55
2023/06/10 01:16:31;;;;;;;11.83;5.20;;;13.10;94.50;;;;;;5014729;28;20423;-54
2023/06/10 01:18:56;;;;;;;11.10;4.97;;;13.10;1.00;;;;;;5014328;28;20469;-54
2023/06/10 01:21:26;;;;;;;9.50;5.13;;;13.00;1.00;;;;;;5014403;28;20426;-54
2023/06/10 01:23:55;;;;;;;8.60;5.07;;;13.00;1.00;;;;;;5015127;28;20184;-54
2023/06/10 01:26:25;;;;;;;7.97;4.90;;;12.90;1.00;;;;;;5014271;28;20514;-54
2023/06/10 01:29:07;;;;;;;9.23;4.47;;;12.90;99.90;;;;;;5014697;28;20442;-55
2023/06/10 01:31:45;;;;;;;12.83;4.80;;;13.00;17.90;;;;;;5014965;28;20415;-53
2023/06/10 01:34:14;;;;;;;8.40;4.90;;;12.90;1.00;;;;;;5014147;28;20950;-54
2023/06/10 01:36:43;;;;;;;16.00;5.27;;;12.80;56.40;;;;;;5014743;28;20498;-53
2023/06/10 01:39:10;;;;;;;15.70;5.13;;;12.80;99.90;;;;;;5012775;28;20458;-54
2023/06/10 01:41:37;;;;;;;9.00;4.63;;;12.80;99.90;;;;;;5014700;28;20426;-56
2023/06/10 01:44:03;;;;;;;13.83;5.00;;;12.70;99.90;;;;;;5014927;28;20415;-54
2023/06/10 01:46:28;;;;;;;7.90;4.60;;;12.70;99.90;;;;;;5014266;28;20419;-54
2023/06/10 01:48:54;;;;;;;11.50;5.33;;;12.70;99.90;;;;;;5014120;28;20188;-53
2023/06/10 01:51:20;;;;;;;11.67;4.90;;;12.70;99.90;;;;;;5013926;28;20180;-54
2023/06/10 01:53:45;;;;;;;17.50;5.03;;;12.70;99.90;;;;;;5014027;28;20240;-53
2023/06/10 01:56:16;;;;;;;9.63;5.00;;;12.70;33.40;;;;;;5014504;28;20513;-53
2023/06/10 01:58:42;;;;;;;8.83;4.33;;;12.70;1.00;;;;;;5014309;28;20219;-54
2023/06/10 02:01:08;;;;;;;10.97;5.03;;;12.60;1.00;;;;;;5013888;28;20423;-54
2023/06/10 02:03:33;;;;;;;7.30;3.97;;;12.60;1.00;;;;;;5013767;28;20193;-52
2023/06/10 02:05:59;;;;;;;11.40;3.70;;;12.60;1.00;;;;;;5014544;28;20184;-54
2023/06/10 02:08:24;;;;;;;10.13;4.00;;;12.60;1.00;;;;;;5013977;28;20655;-54
2023/06/10 02:10:50;;;;;;;9.87;4.40;;;12.60;1.00;;;;;;5014063;28;20624;-52
2023/06/10 02:13:15;;;;;;;8.30;3.37;;;12.50;1.00;;;;;;5013732;28;20184;-54
2023/06/10 02:15:41;;;;;;;9.00;3.83;;;12.60;1.00;;;;;;5013514;28;20575;-53
2023/06/10 02:18:07;;;;;;;5.27;3.80;;;12.50;1.00;;;;;;5013523;28;20208;-55
2023/06/10 02:20:32;;;;;;;12.80;3.83;;;12.50;1.00;;;;;;5013542;28;20188;-54
2023/06/10 02:22:59;;;;;;;9.47;4.00;;;12.50;1.00;;;;;;5013049;28;20184;-53
2023/06/10 02:25:24;;;;;;;9.93;3.97;;;12.50;1.00;;;;;;5013353;28;20567;-54
2023/06/10 02:27:50;;;;;;;9.73;3.80;;;12.40;1.00;;;;;;5012959;28;20420;-54
2023/06/10 02:30:16;;;;;;;8.53;3.73;;;12.40;1.00;;;;;;5013718;28;20208;-54
2023/06/10 02:32:41;;;;;;;8.43;3.50;;;12.40;1.00;;;;;;5013627;28;20636;-54
2023/06/10 02:35:07;;;;;;;6.20;3.13;;;12.40;1.00;;;;;;5013360;28;20238;-54
2023/06/10 02:37:32;;;;;;;5.43;3.10;;;12.40;1.00;;;;;;5013861;28;20212;-54
2023/06/10 02:39:58;;;;;;;6.07;3.40;;;12.40;1.00;;;;;;5012422;28;20188;-54
2023/06/10 02:42:24;;;;;;;8.90;3.90;;;12.30;1.00;;;;;;5012264;28;20180;-54
2023/06/10 02:44:49;;;;;;;10.33;3.70;;;12.30;71.60;;;;;;5013351;28;20672;-54
2023/06/10 02:47:15;;;;;;;8.90;3.33;;;12.20;99.90;;;;;;5012811;28;20259;-54
2023/06/10 02:49:40;;;;;;;5.67;3.47;;;12.20;99.90;;;;;;5013312;28;20195;-54
2023/06/10 02:52:07;;;;;;;9.47;3.97;;;12.20;99.90;;;;;;5013214;28;20240;-54
2023/06/10 02:54:33;;;;;;;12.50;4.10;;;12.10;99.90;;;;;;5013007;28;20540;-54
2023/06/10 02:56:58;;;;;;;10.40;4.00;;;12.10;17.00;;;;;;5013158;28;20423;-54
2023/06/10 02:59:24;;;;;;;8.30;3.33;;;12.10;1.00;;;;;;5012885;28;20665;-53
2023/06/10 03:01:50;;;;;;;6.30;3.43;;;12.20;1.00;;;;;;5012905;28;20188;-55
2023/06/10 03:04:15;;;;;;;8.70;3.70;;;12.20;1.00;;;;;;5012903;28;20531;-53
2023/06/10 03:06:41;;;;;;;7.93;3.40;;;12.20;99.90;;;;;;5012384;28;20215;-52
2023/06/10 03:09:10;;;;;;;10.90;3.30;;;12.20;99.90;;;;;;5013351;28;20195;-53
2023/06/10 03:11:36;;;;;;;13.57;3.80;;;12.20;99.90;;;;;;5012535;28;20711;-54
2023/06/10 03:14:01;;;;;;;8.10;3.13;;;12.10;99.90;;;;;;5013035;28;20566;-54
2023/06/10 03:16:27;;;;;;;8.73;3.50;;;12.10;1.00;;;;;;5012429;28;20740;-54
2023/06/10 03:18:53;;;;;;;10.30;3.40;;;12.00;11.60;;;;;;5012622;28;20294;-54
2023/06/10 03:21:19;;;;;;;7.80;3.67;;;12.10;99.90;;;;;;5012405;28;20180;-54
2023/06/10 03:23:45;;;;;;;11.10;4.00;;;12.10;59.60;;;;;;5012726;28;20498;-54
2023/06/10 03:26:12;;;;;;;6.20;2.97;;;12.10;99.90;;;;;;5012843;28;20845;-53
2023/06/10 03:28:37;;;;;;;10.50;3.57;;;12.20;99.90;;;;;;5012174;28;20644;-54
2023/06/10 03:31:03;;;;;;;12.27;3.80;;;12.20;46.30;;;;;;5013109;28;20434;-54
2023/06/10 03:33:29;;;;;;;11.53;3.77;;;12.30;1.00;;;;;;5012869;28;20271;-54
2023/06/10 03:35:55;;;;;;;7.80;3.50;;;12.20;99.90;;;;;;5011497;28;20655;-54
2023/06/10 03:38:21;;;;;;;5.67;2.90;;;12.20;99.90;;;;;;5012409;28;20493;-54
2023/06/10 03:40:47;;;;;;;5.57;3.73;;;12.30;1.00;;;;;;5012094;28;20234;-54
2023/06/10 03:43:12;;;;;;;8.67;3.43;;;12.30;1.00;;;;;;5011976;28;20185;-53
2023/06/10 03:45:38;;;;;;;11.87;3.93;;;12.30;99.90;;;;;;5011889;28;20184;-54
2023/06/10 03:48:04;;;;;;;8.27;2.97;;;12.30;1.00;;;;;;5012867;28;20192;-53
2023/06/10 03:50:30;;;;;;;5.97;3.33;;;12.30;99.90;;;;;;5012203;28;20589;-54
2023/06/10 03:52:55;;;;;;;7.37;3.63;;;12.30;99.90;;;;;;5012015;28;20513;-54
2023/06/10 03:55:23;;;;;;;6.77;3.17;;;12.30;99.90;;;;;;5012101;28;20191;-54
2023/06/10 03:57:49;;;;;;;8.87;3.33;;;12.30;1.00;;;;;;5011773;28;20223;-54
2023/06/10 04:00:17;;;;;;;9.57;3.03;;;12.40;1.00;;;;;;5011976;28;20454;-54
2023/06/10 04:02:45;;;;;;;8.73;3.30;;;12.40;99.90;;;;;;5012396;28;20442;-53
2023/06/10 04:05:15;;;;;;;8.63;3.37;;;12.50;99.90;;;;;;5011542;28;20526;-55
2023/06/10 04:07:42;;;;;;;8.40;3.23;;;12.50;99.90;;;;;;5012823;28;20420;-54
2023/06/10 04:10:08;;;;;;;6.93;3.30;;;12.60;78.90;;;;;;5012119;28;20431;-54
2023/06/10 04:12:34;;;;;;;12.77;4.07;;;12.70;1.00;;;;;;5011988;28;20945;-52
2023/06/10 04:15:00;;;;;;;5.20;2.70;;;12.70;1.00;;;;;;5011906;28;20455;-55
2023/06/10 04:17:26;;;;;;;7.97;2.80;;;12.80;1.00;;;;;;5011794;28;20462;-54
2023/06/10 04:19:52;;;;;;;6.73;2.70;;;12.90;99.90;;;;;;5012018;28;20188;-54
2023/06/10 04:22:18;;;;;;;9.30;3.20;;;12.90;99.90;;;;;;5012226;28;20905;-54
2023/06/10 04:24:44;;;;;;;7.00;2.80;;;13.20;1.00;;;;;;5011939;28;20180;-54
2023/06/10 04:27:10;;;;;;;9.97;3.20;;;13.20;99.90;;;;;;5011361;28;20756;-54
2023/06/10 04:29:36;;;;;;;5.50;3.10;;;13.30;99.90;;;;;;5011990;28;20271;-54
2023/06/10 04:32:01;;;;;;;3.30;2.60;;;13.40;99.90;;;;;;5011885;28;20418;-55
2023/06/10 04:34:27;;;;;;;7.83;3.10;;;13.50;79.70;;;;;;5011975;28;20418;-55
2023/06/10 04:36:53;;;;;;;6.33;2.90;;;13.60;1.00;;;;;;5011473;28;20556;-56
2023/06/10 04:39:19;;;;;;;11.93;3.67;;;13.80;1.00;;;;;;5011748;28;20216;-55
2023/06/10 04:41:45;;;;;;;7.03;3.10;;;13.90;1.00;;;;;;5011592;28;20216;-53
2023/06/10 04:44:11;;;;;;;4.70;2.80;;;14.00;1.00;;;;;;5011668;28;20424;-56
2023/06/10 04:46:37;;;;;;;11.50;2.90;;;14.10;99.90;;;;;;5012724;28;20780;-55
2023/06/10 04:49:04;;;;;;;4.57;3.00;;;14.30;99.90;;;;;;5015717;28;20423;-56
2023/06/10 04:51:30;;;;;;;5.63;2.53;;;14.50;99.90;;;;;;5014792;28;20189;-56
2023/06/10 04:53:55;;;;;;;9.03;3.00;;;14.70;99.90;;;;;;5014784;28;20483;-55
2023/06/10 04:56:22;;;;;;;4.37;2.40;;;14.80;99.90;;;;;;5015228;28;20247;-55
2023/06/10 04:58:47;;;;;;;9.80;3.10;;;14.90;99.90;;;;;;5015655;28;20212;-55
2023/06/10 05:01:13;;;;;;;10.50;3.50;;;15.10;99.90;;;;;;5015278;28;20424;-56
2023/06/10 05:03:39;;;;;;;7.13;2.60;;;15.10;99.90;;;;;;5014990;28;20196;-57
2023/06/10 05:06:04;;;;;;;9.03;2.90;;;15.30;89.60;;;;;;5015297;28;20239;-56
2023/06/10 05:08:30;;;;;;;8.00;3.20;;;15.40;41.70;;;;;;5014554;28;20281;-55
2023/06/10 05:10:55;;;;;;;10.87;2.60;;;15.40;32.40;;;;;;5015206;28;20185;-54
2023/06/10 05:13:21;;;;;;;7.17;2.73;;;15.60;3.20;;;;;;5014748;28;20191;-57
2023/06/10 05:15:47;;;;;;;7.63;2.90;;;15.70;1.00;;;;;;5014773;28;20216;-55
2023/06/10 05:18:12;;;;;;;11.50;3.30;;;15.70;1.00;;;;;;5015186;28;20213;-56
2023/06/10 05:20:38;;;;;;;10.33;2.93;;;15.90;1.00;;;;;;5014681;28;20186;-56
2023/06/10 05:23:04;;;;;;;11.63;3.03;;;16.00;1.00;;;;;;5014834;28;20641;-55
2023/06/10 05:25:33;;;;;;;6.30;2.70;;;16.20;1.00;;;;;;5014928;28;20185;-56
2023/06/10 05:27:59;;;;;;;8.30;3.40;;;16.40;1.00;;;;;;5014619;28;20221;-55
2023/06/10 05:30:25;;;;;;;12.47;3.73;;;16.50;1.00;;;;;;5014384;28;20452;-58
2023/06/10 05:32:51;;;;;;;7.40;2.60;;;16.70;1.00;;;;;;5014635;28;20205;-57
2023/06/10 05:35:17;;;;;;;8.83;2.47;;;16.80;1.00;;;;;;5014788;28;20418;-56
2023/06/10 05:37:43;;;;;;;5.57;2.23;;;16.90;1.00;;;;;;5014617;28;20463;-56
2023/06/10 05:40:09;;;;;;;8.63;2.87;;;17.10;1.00;;;;;;5014257;28;20275;-55
2023/06/10 05:42:35;;;;;;;7.30;2.63;;;17.20;1.00;;;;;;5014634;28;20845;-56
2023/06/10 05:45:02;;;;;;;8.73;2.47;;;17.30;1.00;;;;;;5014243;28;20449;-56
2023/06/10 05:47:28;;;;;;;9.53;2.60;;;17.50;1.00;;;;;;5014288;28;20528;-57
2023/06/10 05:49:53;;;;;;;7.67;3.10;;;17.70;1.00;;;;;;5014108;28;20932;-54
2023/06/10 05:52:19;;;;;;;8.87;2.50;;;17.90;1.00;;;;;;5013875;28;20481;-55
2023/06/10 05:54:45;;;;;;;6.30;2.40;;;18.10;1.00;;;;;;5014178;28;20669;-55
2023/06/10 05:57:10;;;;;;;6.80;2.90;;;18.20;1.00;;;;;;5013715;28;20557;-56
2023/06/10 05:59:36;;;;;;;7.03;3.00;;;18.40;1.00;;;;;;5013898;28;20229;-56
2023/06/10 06:02:02;;;;;;;11.60;2.80;;;18.50;1.00;;;;;;5013874;28;20194;-56
2023/06/10 06:04:28;;;;;;;7.90;3.03;;;18.70;1.00;;;;;;5014107;28;20198;-55
2023/06/10 06:06:53;;;;;;;11.30;2.67;;;18.80;1.00;;;;;;5013824;28;20183;-56
2023/06/10 06:09:19;;;;;;;7.10;2.77;;;18.80;1.00;;;;;;5014221;28;20191;-56
2023/06/10 06:11:44;;;;;;;9.03;3.27;;;19.00;1.00;;;;;;5013776;28;20543;-54
2023/06/10 06:14:10;;;;;;;7.20;2.40;;;19.00;1.00;;;;;;5013222;28;20185;-55
2023/06/10 06:16:36;;;;;;;6.67;2.60;;;19.00;1.00;;;;;;5013445;28;20644;-55
2023/06/10 06:19:01;;;;;;;5.40;2.50;;;19.20;1.00;;;;;;5013482;28;20210;-55
2023/06/10 06:21:27;;;;;;;5.73;2.70;;;19.30;1.00;;;;;;5012972;28;20226;-54
2023/06/10 06:23:52;;;;;;;5.53;2.17;;;19.50;1.00;;;;;;5013431;28;20186;-55
2023/06/10 06:26:18;;;;;;;9.40;2.90;;;19.70;1.00;;;;;;5013514;28;20184;-56
2023/06/10 06:28:44;;;;;;;5.37;2.83;;;20.00;1.00;;;;;;5013170;28;20202;-55
2023/06/10 06:31:09;;;;;;;8.90;2.77;;;20.00;1.00;;;;;;5013469;28;20281;-55
2023/06/10 06:33:35;;;;;;;6.77;2.67;;;20.10;1.00;;;;;;5013438;28;20233;-55
2023/06/10 06:36:00;;;;;;;6.40;2.60;;;20.40;1.00;;;;;;5013214;28;20183;-55
2023/06/10 06:38:26;;;;;;;6.27;2.90;;;20.50;1.00;;;;;;5013519;28;20675;-55
2023/06/10 06:40:52;;;;;;;7.30;2.60;;;20.70;1.00;;;;;;5013003;28;20705;-55
2023/06/10 06:43:18;;;;;;;6.67;2.43;;;20.90;1.00;;;;;;5013304;28;20544;-55
2023/06/10 06:45:44;;;;;;;8.33;2.57;;;21.20;1.00;;;;;;5013047;28;20670;-55
2023/06/10 06:48:11;;;;;;;6.67;2.50;;;21.30;1.00;;;;;;5011741;28;20430;-55
2023/06/10 06:50:36;;;;;;;6.60;2.90;;;21.50;1.00;;;;;;5012870;28;20413;-55
2023/06/10 06:53:02;;;;;;;7.20;2.80;;;21.70;1.00;;;;;;5013052;28;20481;-53
2023/06/10 06:55:28;;;;;;;6.77;2.60;;;21.80;1.00;;;;;;5012824;28;20205;-53
2023/06/10 06:57:54;;;;;;;7.40;2.80;;;21.90;1.00;;;;;;5012774;28;20466;-54
2023/06/10 07:00:19;;;;;;;9.40;2.80;;;22.00;1.00;;;;;;5012588;28;20198;-55
2023/06/10 07:02:45;;;;;;;8.30;3.50;;;22.20;1.00;;;;;;5012752;28;20180;-55
2023/06/10 07:05:11;;;;;;;12.13;3.03;;;22.40;1.00;;;;;;5012765;28;20586;-55
2023/06/10 07:07:36;;;;;;;5.60;2.30;;;22.60;1.00;;;;;;5013241;28;20265;-55
2023/06/10 07:10:02;;;;;;;5.53;2.70;;;22.80;1.00;;;;;;5012445;28;20215;-55
2023/06/10 07:12:28;;;;;;;5.73;2.90;;;23.00;1.00;;;;;;5012093;28;20284;-54
2023/06/10 07:14:53;;;;;;;4.17;2.43;;;23.10;1.00;;;;;;5013030;28;20693;-55
2023/06/10 07:17:19;;;;;;;6.57;2.60;;;23.10;1.00;;;;;;5012590;28;20181;-55
2023/06/10 07:19:45;;;;;;;5.50;2.33;;;23.30;1.00;;;;;;5012034;28;20223;-55
2023/06/10 07:22:11;;;;;;;6.83;2.60;;;23.60;1.00;;;;;;5012188;28;20631;-55
2023/06/10 07:24:36;;;;;;;10.57;3.00;;;23.80;1.00;;;;;;5012969;28;20473;-55
2023/06/10 07:27:02;;;;;;;5.53;2.73;;;23.80;1.00;;;;;;5012726;28;20197;-55
2023/06/10 07:29:28;;;;;;;6.80;2.97;;;24.00;1.00;;;;;;5012213;28;20233;-55
2023/06/10 07:31:53;;;;;;;10.83;2.80;;;23.80;99.90;;;;;;5012254;28;20181;-55
2023/06/10 07:34:19;;;;;;;11.33;3.30;;;24.00;1.00;;;;;;5012654;28;20194;-55
2023/06/10 07:36:45;;;;;;;10.23;3.10;;;24.10;99.90;;;;;;5012126;28;20192;-55
2023/06/10 07:39:10;;;;;;;10.80;3.30;;;24.10;99.90;;;;;;5012554;28;20206;-54
2023/06/10 07:41:36;;;;;;;7.93;2.97;;;24.10;1.00;;;;;;5011944;28;20674;-54
2023/06/10 07:44:02;;;;;;;7.73;2.63;;;24.00;1.00;;;;;;5011910;28;20183;-54
2023/06/10 07:46:28;;;;;;;7.50;2.90;;;23.70;1.00;;;;;;5012367;28;20252;-55
2023/06/10 07:48:54;;;;;;;6.60;3.30;;;23.60;1.00;;;;;;5011851;28;20294;-55
2023/06/10 07:51:21;;;;;;;5.40;3.20;;;23.70;1.00;;;;;;5012101;28;20407;-55
2023/06/10 07:53:46;;;;;;;7.03;2.77;;;23.80;1.00;;;;;;5011526;28;20840;-55
2023/06/10 07:56:12;;;;;;;5.60;2.60;;;24.00;1.00;;;;;;5012048;28;20432;-55
2023/06/10 07:58:38;;;;;;;11.13;3.30;;;24.00;99.90;;;;;;5012371;28;20210;-53
2023/06/10 08:01:03;;;;;;;11.17;3.40;;;24.10;1.00;;;;;;5011850;28;20191;-53
2023/06/10 08:03:29;;;;;;;4.93;2.90;;;24.30;99.90;;;;;;5011950;28;20184;-53
2023/06/10 08:05:55;;;;;;;9.07;4.30;;;24.60;1.00;;;;;;5011114;28;20506;-52
2023/06/10 08:08:20;;;;;;;8.27;4.10;;;24.80;1.00;;;;;;5010696;28;20181;-53
2023/06/10 08:10:46;;;;;;;7.00;3.17;;;24.80;99.90;;;;;;5011763;28;20526;-53
2023/06/10 08:13:12;;;;;;;10.30;3.80;;;24.90;99.90;;;;;;5011708;28;20187;-54
2023/06/10 08:15:37;;;;;;;8.87;3.30;;;25.30;99.90;;;;;;5011243;28;20190;-52
2023/06/10 08:18:03;;;;;;;8.60;3.70;;;25.30;99.90;;;;;;5011511;28;20212;-53
2023/06/10 08:20:29;;;;;;;8.73;3.30;;;25.40;99.90;;;;;;5012151;28;20228;-53
2023/06/10 08:22:55;;;;;;;9.47;2.90;;;25.80;99.90;;;;;;5015415;28;20621;-53
2023/06/10 08:25:22;;;;;;;8.20;3.20;;;25.90;99.90;;;;;;5015491;28;20184;-53
2023/06/10 08:27:47;;;;;;;9.07;3.30;;;26.10;99.90;;;;;;5015786;28;20278;-53
2023/06/10 08:30:14;;;;;;;7.70;3.17;;;26.30;99.90;;;;;;5015467;28;20494;-53
2023/06/10 08:32:39;;;;;;;9.17;3.10;;;26.70;99.90;;;;;;5014928;28;20207;-52
2023/06/10 08:35:05;;;;;;;7.40;3.10;;;26.80;99.90;;;;;;5015219;28;20461;-53
2023/06/10 08:37:31;;;;;;;7.30;3.37;;;26.90;99.90;;;;;;5015526;28;20184;-53
2023/06/10 08:39:56;;;;;;;4.30;2.77;;;26.90;99.90;;;;;;5015419;28;20633;-53
2023/06/10 08:42:26;;;;;;;8.20;3.93;;;26.90;99.90;;;;;;5014858;28;20183;-53
2023/06/10 08:44:55;;;;;;;10.23;3.00;;;27.20;99.90;;;;;;5014865;28;20207;-53
2023/06/10 08:47:23;;;;;;;7.90;3.83;;;27.40;99.90;;;;;;5015012;28;20419;-54
2023/06/10 08:49:49;;;;;;;4.83;3.40;;;27.30;99.90;;;;;;5015302;28;20434;-53
2023/06/10 08:52:16;;;;;;;5.50;3.47;;;27.40;99.90;;;;;;5014226;28;20466;-52
2023/06/10 08:55:04;;;;;;;7.50;3.20;;;27.50;99.90;;;;;;5014658;28;20203;-52
2023/06/10 08:57:30;;;;;;;5.20;3.30;;;27.90;99.90;;;;;;5014535;28;20415;-53
2023/06/10 08:59:57;;;;;;;7.37;3.50;;;28.00;99.90;;;;;;5014636;28;20534;-53
2023/06/10 09:02:24;;;;;;;8.50;4.23;;;28.00;99.90;;;;;;5014661;28;20442;-53
2023/06/10 09:04:50;;;;;;;5.80;3.30;;;28.00;99.90;;;;;;5013703;28;20789;-53
2023/06/10 09:07:16;;;;;;;9.10;3.97;;;28.10;99.90;;;;;;5014820;28;20585;-53
2023/06/10 09:09:45;;;;;;;7.17;3.87;;;28.20;99.90;;;;;;5014884;28;20430;-54
2023/06/10 09:12:13;;;;;;;7.10;3.40;;;28.50;99.90;;;;;;5014046;28;20421;-54
2023/06/10 09:14:38;;;;;;;8.53;3.37;;;28.80;99.90;;;;;;5014889;28;20787;-54
2023/06/10 09:17:05;;;;;;;7.67;3.30;;;28.90;99.90;;;;;;5014736;28;20419;-54
2023/06/10 09:19:32;;;;;;;4.30;2.97;;;29.00;99.90;;;;;;5014288;28;20208;-54
2023/06/10 09:21:58;;;;;;;5.67;3.10;;;29.10;99.90;;;;;;5014047;28;20423;-54
2023/06/10 09:24:24;;;;;;;10.40;3.27;;;29.10;99.90;;;;;;5014337;28;20421;-54
2023/06/10 09:26:50;;;;;;;10.53;3.70;;;29.20;99.90;;;;;;5013968;28;20407;-55
2023/06/10 09:29:17;;;;;;;6.47;3.33;;;29.20;99.90;;;;;;5014180;28;20438;-54
2023/06/10 09:31:44;;;;;;;8.43;3.90;;;29.30;99.90;;;;;;5013711;28;20997;-55
2023/06/10 09:34:12;;;;;;;8.27;3.80;;;28.90;99.90;;;;;;5013381;28;20474;-52
2023/06/10 09:36:38;;;;;;;13.97;3.90;;;28.70;99.90;;;;;;5014704;28;20419;-54
2023/06/10 09:39:05;;;;;;;8.53;3.83;;;28.80;99.90;;;;;;5014453;28;20546;-54
2023/06/10 09:41:40;;;;;;;8.07;4.40;;;29.10;99.90;;;;;;5013813;28;20415;-54
2023/06/10 09:44:16;;;;;;;11.43;4.17;;;29.20;99.90;;;;;;5013741;28;20419;-54
2023/06/10 09:46:45;;;;;;;14.33;4.13;;;29.10;99.90;;;;;;5013831;28;20484;-54
2023/06/10 09:49:11;;;;;;;7.20;3.73;;;29.00;99.90;;;;;;5013609;28;20457;-54
2023/06/10 09:51:36;;;;;;;8.93;3.73;;;29.40;99.90;;;;;;5013749;28;20411;-54
2023/06/10 09:54:03;;;;;;;12.33;4.33;;;29.80;99.90;;;;;;5013670;28;20538;-54
2023/06/10 09:56:35;;;;;;;11.50;3.50;;;30.00;99.90;;;;;;5013645;28;20180;-54
2023/06/10 09:59:02;;;;;;;8.80;3.40;;;30.00;99.90;;;;;;5013839;28;20458;-54
2023/06/10 10:01:30;;;;;;;6.40;4.00;;;30.10;99.90;;;;;;5013444;28;20533;-53
2023/06/10 10:03:56;;;;;;;6.70;3.50;;;30.30;99.90;;;;;;5013722;28;20414;-55
2023/06/10 10:06:21;;;;;;;9.53;3.60;;;30.30;99.90;;;;;;5013337;28;20755;-54
2023/06/10 10:08:49;;;;;;;12.07;3.57;;;30.40;99.90;;;;;;5013694;28;20211;-55
2023/06/10 10:11:21;;;;;;;10.13;3.27;;;30.60;99.90;;;;;;5013057;28;20179;-54
2023/06/10 10:13:49;;;;;;;6.10;3.57;;;30.90;99.90;;;;;;5013551;28;20574;-54
2023/06/10 10:16:17;;;;;;;7.20;3.63;;;31.20;99.90;;;;;;5013567;28;20447;-53
2023/06/10 10:18:55;;;;;;;7.90;3.73;;;31.30;99.90;;;;;;5012830;28;20498;-54
2023/06/10 10:21:25;;;;;;;12.00;4.03;;;31.30;99.90;;;;;;5013264;28;20435;-53
2023/06/10 10:24:07;;;;;;;8.87;3.50;;;31.40;99.90;;;;;;5013326;28;20469;-54
2023/06/10 10:26:33;;;;;;;6.10;3.30;;;31.40;99.90;;;;;;5013102;28;20941;-54
2023/06/10 10:29:12;;;;;;;8.70;4.07;;;31.60;99.90;;;;;;5012458;28;20438;-54
2023/06/10 10:31:40;;;;;;;6.83;3.10;;;31.80;99.90;;;;;;5012630;28;20419;-55
2023/06/10 10:34:16;;;;;;;5.77;3.73;;;32.00;99.90;;;;;;5013101;28;20502;-55
2023/06/10 10:36:43;;;;;;;13.03;3.90;;;31.80;99.90;;;;;;5013152;28;20407;-55
2023/06/10 10:39:09;;;;;;;11.87;4.03;;;31.70;99.90;;;;;;5013526;28;20491;-55
2023/06/10 10:41:36;;;;;;;7.00;3.60;;;31.50;99.90;;;;;;5012652;28;20415;-54
2023/06/10 10:44:05;;;;;;;7.00;3.70;;;31.60;99.90;;;;;;5011689;28;20518;-55
2023/06/10 10:46:41;;;;;;;10.00;4.47;;;31.60;99.90;;;;;;5012829;28;20941;-55
2023/06/10 10:49:07;;;;;;;5.50;3.90;;;31.60;99.90;;;;;;5012900;28;20411;-54
2023/06/10 10:51:37;;;;;;;9.70;4.20;;;31.70;99.90;;;;;;5011899;28;20557;-55
2023/06/10 10:54:14;;;;;;;10.07;4.00;;;31.70;99.90;;;;;;5012521;28;21005;-54
2023/06/10 10:57:11;;;;;;;6.23;4.00;;;32.00;99.90;;;;;;5012099;28;20423;-53
2023/06/10 10:59:48;;;;;;;6.10;3.53;;;32.20;99.90;;;;;;5012561;28;20549;-54
2023/06/10 11:02:38;;;;;;;7.63;3.90;;;31.90;99.90;;;;;;5012175;28;20867;-55
2023/06/10 11:05:05;;;;;;;10.43;3.80;;;32.10;99.90;;;;;;5012781;28;20458;-55
2023/06/10 11:07:31;;;;;;;7.63;3.90;;;32.30;99.90;;;;;;5011987;28;20465;-55
2023/06/10 11:10:07;;;;;;;10.03;4.10;;;32.70;99.90;;;;;;5012256;28;20510;-54
2023/06/10 11:12:45;;;;;;;8.90;4.20;;;33.00;99.90;;;;;;5012607;28;20789;-54
2023/06/10 11:15:12;;;;;;;7.60;3.97;;;33.20;99.90;;;;;;5011888;28;20419;-55
2023/06/10 11:18:26;;;;;;;5.53;3.60;;;33.40;99.90;;;;;;5012092;28;20556;-55
2023/06/10 11:20:56;;;;;;;10.60;4.00;;;33.40;99.90;;;;;;4990304;28;20443;-55
2023/06/10 11:23:36;;;;;;;8.30;3.90;;;33.30;99.90;;;;;;4990351;28;20500;-55
2023/06/10 11:26:32;;;;;;;5.13;3.10;;;33.30;99.90;;;;;;5003151;28;20891;-55
2023/06/10 11:28:57;;;;;;;5.93;3.60;;;33.50;99.90;;;;;;5011796;28;20419;-55
2023/06/10 11:31:25;;;;;;;8.53;3.90;;;33.50;99.90;;;;;;5011794;28;20423;-55
2023/06/10 11:34:00;;;;;;;7.90;4.73;;;33.80;99.90;;;;;;5011810;28;20192;-55
2023/06/10 11:36:28;;;;;;;18.33;4.30;;;33.70;99.90;;;;;;5012155;28;20453;-55
2023/06/10 11:38:58;;;;;;;6.50;4.80;;;33.60;99.90;;;;;;5011659;28;20459;-54
2023/06/10 11:41:27;;;;;;;15.53;4.10;;;33.50;99.90;;;;;;5011811;28;20430;-55
2023/06/10 11:43:56;;;;;;;8.43;3.70;;;33.30;99.90;;;;;;5011502;28;20775;-54
2023/06/10 11:46:23;;;;;;;6.90;4.57;;;33.40;99.90;;;;;;5010235;28;20569;-55
2023/06/10 11:48:51;;;;;;;7.80;4.13;;;33.50;99.90;;;;;;5011701;28;20458;-55
2023/06/10 11:51:16;;;;;;;7.80;4.30;;;33.80;99.90;;;;;;5011696;28;20423;-55
2023/06/10 11:53:46;;;;;;;22.77;5.10;;;33.60;99.90;;;;;;5011439;28;20572;-55
2023/06/10 11:56:12;;;;;;;6.73;3.70;;;33.60;99.90;;;;;;5011195;28;20295;-55
2023/06/10 11:58:41;;;;;;;7.70;4.20;;;33.80;99.90;;;;;;5012012;28;20588;-55
2023/06/10 12:01:07;;;;;;;10.10;4.93;;;33.90;99.90;;;;;;5011952;28;20237;-56
2023/06/10 12:03:37;;;;;;;7.70;4.67;;;33.80;99.90;;;;;;5011338;28;20919;-55
2023/06/10 12:06:06;;;;;;;9.10;5.13;;;33.60;99.90;;;;;;5011495;28;20187;-56
2023/06/10 12:08:33;;;;;;;10.97;5.10;;;33.40;99.90;;;;;;5011346;28;20423;-56
2023/06/10 12:10:59;;;;;;;11.33;5.00;;;33.10;99.90;;;;;;5011362;28;20762;-56
2023/06/10 12:13:28;;;;;;;9.77;4.50;;;33.50;99.90;;;;;;5011698;28;20438;-56
2023/06/10 12:15:54;;;;;;;6.93;4.70;;;33.20;99.90;;;;;;5011463;28;20415;-56
2023/06/10 12:18:22;;;;;;;6.23;4.17;;;33.30;99.90;;;;;;5011236;28;20483;-56
2023/06/10 12:20:51;;;;;;;6.93;4.57;;;33.50;99.90;;;;;;5011101;28;20533;-55
2023/06/10 12:23:17;;;;;;;9.50;4.53;;;32.90;99.90;;;;;;5011332;28;20397;-55
2023/06/10 12:25:56;;;;;;;6.37;4.70;;;33.10;99.90;;;;;;5011763;28;20386;-55
2023/06/10 12:28:25;;;;;;;9.83;5.30;;;33.50;99.90;;;;;;5011530;28;20434;-55
2023/06/10 12:30:51;;;;;;;8.23;4.90;;;33.40;99.90;;;;;;5010788;28;20415;-54
2023/06/10 12:33:18;;;;;;;8.67;5.00;;;33.40;99.90;;;;;;5011208;28;20422;-54
2023/06/10 12:35:51;;;;;;;5.93;4.20;;;33.70;99.90;;;;;;5011574;28;20462;-54
2023/06/10 12:38:27;;;;;;;8.53;5.03;;;33.90;99.90;;;;;;5011536;28;20501;-55
2023/06/10 12:40:53;;;;;;;6.57;4.80;;;34.10;99.90;;;;;;5010809;28;20422;-55
2023/06/10 12:43:25;;;;;;;9.07;5.17;;;34.10;99.90;;;;;;5010162;28;20432;-55
2023/06/10 12:45:51;;;;;;;8.20;4.67;;;34.20;99.90;;;;;;5011405;28;20435;-55
2023/06/10 12:48:18;;;;;;;7.23;5.20;;;34.50;99.90;;;;;;5010733;28;20427;-55